createdAt,value
2019-03-11T00:01:50.423Z,6.43
2019-03-11T00:04:21.594Z,6.80
2019-03-11T00:06:52.578Z,6.35
2019-03-11T00:09:23.855Z,5.85
2019-03-11T00:11:56.088Z,5.22
2019-03-11T00:14:26.854Z,6.53
2019-03-11T00:16:59.014Z,4.83
2019-03-11T00:19:34.911Z,4.80
2019-03-11T00:22:07.149Z,6.20
2019-03-11T00:24:37.784Z,5.37
2019-03-11T00:27:08.602Z,4.30
2019-03-11T00:29:40.072Z,5.87
2019-03-11T00:32:15.599Z,5.33
2019-03-11T00:34:43.133Z,4.58
2019-03-11T00:37:13.716Z,4.12
2019-03-11T00:39:46.715Z,6.37
2019-03-11T00:42:17.774Z,3.77
2019-03-11T00:44:48.696Z,4.47
2019-03-11T00:47:19.568Z,4.22
2019-03-11T00:49:53.144Z,3.75
2019-03-11T00:52:23.816Z,5.75
2019-03-11T00:54:54.405Z,5.12
2019-03-11T00:57:25.020Z,4.77
2019-03-11T00:59:56.164Z,4.40
2019-03-11T01:02:28.222Z,5.60
2019-03-11T01:04:59.144Z,4.12
2019-03-11T01:07:36.369Z,4.53
2019-03-11T01:10:07.427Z,4.58
2019-03-11T01:12:38.159Z,4.22
2019-03-11T01:15:08.871Z,4.58
2019-03-11T01:17:40.108Z,4.97
2019-03-11T01:20:10.746Z,5.95
2019-03-11T01:22:42.037Z,3.70
2019-03-11T01:25:12.733Z,5.62
2019-03-11T01:27:43.522Z,5.17
2019-03-11T01:30:15.556Z,5.50
2019-03-11T01:32:47.600Z,6.78
2019-03-11T01:35:20.167Z,6.70
2019-03-11T01:37:50.907Z,4.72
2019-03-11T01:40:21.386Z,6.40
2019-03-11T01:42:52.100Z,6.53
2019-03-11T01:45:23.046Z,6.15
2019-03-11T01:47:53.560Z,7.35
2019-03-11T01:50:24.614Z,6.62
2019-03-11T01:52:55.531Z,7.17
2019-03-11T01:55:26.528Z,5.92
2019-03-11T01:57:57.223Z,4.70
2019-03-11T02:00:28.881Z,4.15
2019-03-11T02:02:59.757Z,4.35
2019-03-11T02:05:32.495Z,4.63
2019-03-11T02:08:03.751Z,4.33
2019-03-11T02:10:34.217Z,4.40
2019-03-11T02:13:05.212Z,7.25
2019-03-11T02:15:35.874Z,5.00
2019-03-11T02:18:06.444Z,4.62
2019-03-11T02:20:37.354Z,5.58
2019-03-11T02:23:08.424Z,5.72
2019-03-11T02:25:38.953Z,6.58
2019-03-11T02:28:09.520Z,7.10
2019-03-11T02:30:40.108Z,5.25
2019-03-11T02:33:10.683Z,5.05
2019-03-11T02:35:41.782Z,6.00
2019-03-11T02:38:12.271Z,4.40
2019-03-11T02:40:42.795Z,4.80
2019-03-11T02:43:15.514Z,5.28
2019-03-11T02:45:45.992Z,6.50
2019-03-11T02:48:16.557Z,6.10
2019-03-11T02:50:47.576Z,5.70
2019-03-11T02:53:18.358Z,6.90
2019-03-11T02:55:51.136Z,5.12
2019-03-11T02:58:22.911Z,6.67
2019-03-11T03:01:04.621Z,5.92
2019-03-11T03:03:40.009Z,6.60
2019-03-11T03:06:14.085Z,5.90
2019-03-11T03:08:44.941Z,6.58
2019-03-11T03:11:15.929Z,6.15
2019-03-11T03:13:46.500Z,5.37
2019-03-11T03:16:18.795Z,7.83
2019-03-11T03:18:51.037Z,6.85
2019-03-11T03:21:21.779Z,5.92
2019-03-11T03:23:52.729Z,7.42
2019-03-11T03:26:23.590Z,5.12
2019-03-11T03:28:54.113Z,8.10
2019-03-11T03:31:25.682Z,5.97
2019-03-11T03:33:56.497Z,11.83
2019-03-11T03:36:27.756Z,7.85
2019-03-11T03:38:58.115Z,6.20
2019-03-11T03:41:29.026Z,6.60
2019-03-11T03:43:59.731Z,7.78
2019-03-11T03:46:30.562Z,5.50
2019-03-11T03:49:01.218Z,8.17
2019-03-11T03:51:32.083Z,10.75
2019-03-11T03:54:02.888Z,14.38
2019-03-11T03:56:33.816Z,9.50
2019-03-11T03:59:04.419Z,8.85
2019-03-11T04:01:34.925Z,10.00
2019-03-11T04:04:05.509Z,11.15
2019-03-11T04:06:37.036Z,6.27
2019-03-11T04:09:07.796Z,9.03
2019-03-11T04:11:40.086Z,8.50
2019-03-11T04:14:10.663Z,6.67
2019-03-11T04:16:45.163Z,12.15
2019-03-11T04:19:16.863Z,6.83
2019-03-11T04:21:47.712Z,11.00
2019-03-11T04:24:18.373Z,14.45
2019-03-11T04:26:54.322Z,10.82
2019-03-11T04:29:24.915Z,10.15
2019-03-11T04:31:55.400Z,18.37
2019-03-11T04:34:26.014Z,12.30
2019-03-11T04:36:56.687Z,12.10
2019-03-11T04:39:30.720Z,13.08
2019-03-11T04:42:00.419Z,11.05
2019-03-11T04:44:31.197Z,7.90
2019-03-11T04:47:01.927Z,10.25
2019-03-11T04:49:32.618Z,11.83
2019-03-11T04:52:22.272Z,11.00
2019-03-11T04:54:53.311Z,12.27
2019-03-11T04:57:24.271Z,10.33
2019-03-11T04:59:55.225Z,12.60
2019-03-11T05:02:26.101Z,13.50
2019-03-11T05:04:57.166Z,13.80
2019-03-11T05:07:28.206Z,16.82
2019-03-11T05:09:58.612Z,12.18
2019-03-11T05:12:29.499Z,16.07
2019-03-11T05:15:00.346Z,17.35
2019-03-11T05:17:30.906Z,13.35
2019-03-11T05:20:01.447Z,12.73
2019-03-11T05:22:32.186Z,13.30
2019-03-11T05:25:03.055Z,15.38
2019-03-11T05:27:33.637Z,15.37
2019-03-11T05:30:04.576Z,17.52
2019-03-11T05:32:35.080Z,14.95
2019-03-11T05:35:05.912Z,13.25
2019-03-11T05:37:36.983Z,12.30
2019-03-11T05:40:08.014Z,15.15
2019-03-11T05:42:38.780Z,16.87
2019-03-11T05:45:10.866Z,15.07
2019-03-11T05:47:41.313Z,13.25
2019-03-11T05:50:13.203Z,17.98
2019-03-11T05:52:45.666Z,13.90
2019-03-11T05:55:16.685Z,13.88
2019-03-11T05:57:47.415Z,15.03
2019-03-11T06:00:22.296Z,13.97
2019-03-11T06:02:52.827Z,15.25
2019-03-11T06:05:23.384Z,15.60
2019-03-11T06:07:54.975Z,14.63
2019-03-11T06:10:25.925Z,12.77
2019-03-11T06:12:56.645Z,14.43
2019-03-11T06:15:27.466Z,16.30
2019-03-11T06:18:00.031Z,15.58
2019-03-11T06:20:49.572Z,15.65
2019-03-11T06:23:20.519Z,18.80
2019-03-11T06:25:58.755Z,12.25
2019-03-11T06:28:30.335Z,14.03
2019-03-11T06:31:00.973Z,12.15
2019-03-11T06:33:31.564Z,16.00
2019-03-11T06:36:02.524Z,17.25
2019-03-11T06:38:33.691Z,18.23
2019-03-11T06:41:04.748Z,18.27
2019-03-11T06:43:36.143Z,16.77
2019-03-11T06:46:06.836Z,13.80
2019-03-11T06:48:37.365Z,13.15
2019-03-11T06:51:07.840Z,14.33
2019-03-11T06:53:40.460Z,15.90
2019-03-11T06:56:12.374Z,15.60
2019-03-11T06:58:43.320Z,18.37
2019-03-11T07:01:14.015Z,16.87
2019-03-11T07:03:44.808Z,16.87
2019-03-11T07:06:15.699Z,23.85
2019-03-11T07:08:46.500Z,13.78
2019-03-11T07:11:18.894Z,18.23
2019-03-11T07:13:50.586Z,14.87
2019-03-11T07:16:21.229Z,13.73
2019-03-11T07:18:51.858Z,19.90
2019-03-11T07:21:22.553Z,17.37
2019-03-11T07:23:53.510Z,17.52
2019-03-11T07:26:24.331Z,16.70
2019-03-11T07:28:58.675Z,19.03
2019-03-11T07:31:29.462Z,15.75
2019-03-11T07:34:00.540Z,11.80
2019-03-11T07:36:31.060Z,13.13
2019-03-11T07:39:02.028Z,16.52
2019-03-11T07:41:33.352Z,18.30
2019-03-11T07:44:04.541Z,13.30
2019-03-11T07:46:35.804Z,16.07
2019-03-11T07:49:06.628Z,18.35
2019-03-11T07:51:37.684Z,18.77
2019-03-11T07:54:08.656Z,16.20
2019-03-11T07:56:39.472Z,14.65
2019-03-11T07:59:10.025Z,17.90
2019-03-11T08:01:40.556Z,14.90
2019-03-11T08:04:11.428Z,17.40
2019-03-11T08:06:43.797Z,16.25
2019-03-11T08:09:16.647Z,17.02
2019-03-11T08:11:48.068Z,17.98
2019-03-11T08:14:19.007Z,14.40
2019-03-11T08:16:50.643Z,13.45
2019-03-11T08:19:21.808Z,17.50
2019-03-11T08:21:53.216Z,18.52
2019-03-11T08:24:24.396Z,18.50
2019-03-11T08:26:55.359Z,19.07
2019-03-11T08:29:26.159Z,14.23
2019-03-11T08:31:57.284Z,17.00
2019-03-11T08:34:28.649Z,16.42
2019-03-11T08:36:59.699Z,16.17
2019-03-11T08:39:33.616Z,17.75
2019-03-11T08:42:06.099Z,14.20
2019-03-11T08:44:40.404Z,15.63
2019-03-11T08:47:11.860Z,17.55
2019-03-11T08:49:55.132Z,16.77
2019-03-11T08:52:32.671Z,15.23
2019-03-11T08:55:10.772Z,12.10
2019-03-11T08:57:44.170Z,14.63
2019-03-11T09:00:17.918Z,12.93
2019-03-11T09:02:48.998Z,15.83
2019-03-11T09:05:20.810Z,13.15
2019-03-11T09:07:51.539Z,13.13
2019-03-11T09:10:24.666Z,13.00
2019-03-11T09:12:55.970Z,14.78
2019-03-11T09:15:26.735Z,12.55
2019-03-11T09:17:58.295Z,11.03
2019-03-11T09:20:38.011Z,12.00
2019-03-11T09:23:08.793Z,11.87
2019-03-11T09:25:43.208Z,14.45
2019-03-11T09:28:17.759Z,9.63
2019-03-11T09:30:53.379Z,11.05
2019-03-11T09:33:27.758Z,7.83
2019-03-11T09:35:58.414Z,7.37
2019-03-11T09:38:28.951Z,7.08
2019-03-11T09:41:02.337Z,4.55
2019-03-11T09:43:33.009Z,5.17
2019-03-11T09:46:03.641Z,6.53
2019-03-11T09:48:34.457Z,5.80
2019-03-11T09:51:07.861Z,3.67
2019-03-11T09:53:38.523Z,4.35
2019-03-11T09:56:09.826Z,4.33
2019-03-11T09:58:40.974Z,3.20
2019-03-11T10:01:11.590Z,5.95
2019-03-11T10:03:42.324Z,4.90
2019-03-11T10:06:13.727Z,5.58
2019-03-11T10:08:47.391Z,6.60
2019-03-11T10:11:22.212Z,3.92
2019-03-11T10:13:53.401Z,4.97
2019-03-11T10:16:24.376Z,4.77
2019-03-11T10:18:59.635Z,5.90
2019-03-11T10:21:40.204Z,5.05
2019-03-11T10:24:16.286Z,7.35
2019-03-11T10:26:50.398Z,5.90
2019-03-11T10:29:28.085Z,4.00
2019-03-11T10:32:00.516Z,2.33
2019-03-11T10:34:31.845Z,4.12
2019-03-11T10:37:22.660Z,4.47
2019-03-11T10:40:01.515Z,4.40
2019-03-11T10:42:34.974Z,2.40
2019-03-11T10:45:26.598Z,5.70
2019-03-11T10:47:51.286Z,2.80
2019-03-11T10:51:45.207Z,3.73
2019-03-11T10:54:20.348Z,3.65
2019-03-11T10:56:56.240Z,3.45
2019-03-11T10:59:27.050Z,3.42
2019-03-11T11:01:58.159Z,16.80
2019-03-11T11:04:28.683Z,2.92
2019-03-11T11:07:02.976Z,3.72
2019-03-11T11:09:33.509Z,4.00
2019-03-11T11:12:08.084Z,6.17
2019-03-11T11:14:39.055Z,2.40
2019-03-11T11:17:17.885Z,3.80
2019-03-11T11:19:49.081Z,4.20
2019-03-11T11:22:20.112Z,5.45
2019-03-11T11:24:50.949Z,4.67
2019-03-11T11:27:22.253Z,4.08
2019-03-11T11:29:53.825Z,5.58
2019-03-11T11:32:25.411Z,6.90
2019-03-11T11:34:56.050Z,4.47
2019-03-11T11:37:26.692Z,4.67
2019-03-11T11:39:57.688Z,4.22
2019-03-11T11:42:31.739Z,4.83
2019-03-11T11:45:03.392Z,5.10
2019-03-11T11:47:34.173Z,4.83
2019-03-11T11:50:05.404Z,4.75
2019-03-11T11:52:35.967Z,4.25
2019-03-11T11:55:15.425Z,7.43
2019-03-11T11:57:46.703Z,6.35
2019-03-11T12:00:32.140Z,4.47
2019-03-11T12:03:06.879Z,5.75
2019-03-11T12:05:41.027Z,4.95
2019-03-11T12:08:12.557Z,5.80
2019-03-11T12:10:44.323Z,4.43
2019-03-11T12:13:17.054Z,5.20
2019-03-11T12:15:50.128Z,5.58
2019-03-11T12:18:24.259Z,5.40
2019-03-11T12:20:56.309Z,4.83
2019-03-11T12:23:27.205Z,4.00
2019-03-11T12:25:58.171Z,3.80
2019-03-11T12:28:29.282Z,5.95
2019-03-11T12:30:59.915Z,4.67
2019-03-11T12:33:34.001Z,6.45
2019-03-11T12:36:20.080Z,3.98
2019-03-11T12:38:51.260Z,6.45
2019-03-11T12:41:22.011Z,13.22
2019-03-11T12:43:54.168Z,5.10
2019-03-11T12:46:25.102Z,7.27
2019-03-11T12:48:56.601Z,9.10
2019-03-11T12:51:29.771Z,4.78
2019-03-11T12:54:02.319Z,10.88
2019-03-11T12:56:34.176Z,5.37
2019-03-11T12:59:05.552Z,4.90
2019-03-11T13:01:47.855Z,7.95
2019-03-11T13:04:25.998Z,4.25
2019-03-11T13:07:16.438Z,4.65
2019-03-11T13:09:52.991Z,6.15
2019-03-11T13:12:24.553Z,6.17
2019-03-11T13:15:00.870Z,5.85
2019-03-11T13:17:38.156Z,4.15
2019-03-11T13:20:12.185Z,5.33
2019-03-11T13:22:49.640Z,6.12
2019-03-11T13:25:22.636Z,5.85
2019-03-11T13:27:55.701Z,5.75
2019-03-11T13:30:30.018Z,6.50
2019-03-11T13:33:03.843Z,4.25
2019-03-11T13:35:37.496Z,5.70
2019-03-11T13:38:09.543Z,6.90
2019-03-11T13:40:46.678Z,8.53
2019-03-11T13:43:18.381Z,6.53
2019-03-11T13:45:51.897Z,4.90
2019-03-11T13:48:35.775Z,3.10
2019-03-11T13:51:08.686Z,4.85
2019-03-11T13:53:39.795Z,4.72
2019-03-11T13:56:34.973Z,5.85
2019-03-11T13:59:21.380Z,5.85
2019-03-11T14:02:15.902Z,3.90
2019-03-11T14:04:50.966Z,5.30
2019-03-11T14:07:22.482Z,5.87
2019-03-11T14:10:04.895Z,4.37
2019-03-11T14:12:36.336Z,4.80
2019-03-11T14:15:18.270Z,5.53
2019-03-11T14:17:49.278Z,5.67
2019-03-11T14:20:21.824Z,5.47
2019-03-11T14:22:56.384Z,4.60
2019-03-11T14:25:44.318Z,5.62
2019-03-11T14:28:25.202Z,5.55
2019-03-11T14:31:00.214Z,5.37
2019-03-11T14:33:32.331Z,6.50
2019-03-11T14:36:05.838Z,8.23
2019-03-11T14:38:36.549Z,5.42
2019-03-11T14:41:07.503Z,5.55
2019-03-11T14:43:39.048Z,4.65
2019-03-11T14:46:10.312Z,6.62
2019-03-11T14:48:40.964Z,5.55
2019-03-11T14:51:11.914Z,5.67
2019-03-11T14:53:42.534Z,4.40
2019-03-11T14:56:13.245Z,5.30
2019-03-11T14:58:43.823Z,4.35
2019-03-11T15:01:14.680Z,4.30
2019-03-11T15:03:45.372Z,5.92
2019-03-11T15:06:15.878Z,7.67
2019-03-11T15:08:46.874Z,5.92
2019-03-11T15:11:20.215Z,9.75
2019-03-11T15:13:53.147Z,7.37
2019-03-11T15:16:25.366Z,8.45
2019-03-11T15:19:02.143Z,6.80
2019-03-11T15:21:38.677Z,5.80
2019-03-11T15:24:10.095Z,5.53
2019-03-11T15:26:41.095Z,7.08
2019-03-11T15:29:11.929Z,6.60
2019-03-11T15:31:43.407Z,4.40
2019-03-11T15:34:14.541Z,5.00
2019-03-11T15:36:46.908Z,6.50
2019-03-11T15:39:17.798Z,7.07
2019-03-11T15:41:49.192Z,6.12
2019-03-11T15:44:22.404Z,5.17
2019-03-11T15:46:56.561Z,4.72
2019-03-11T15:49:27.624Z,6.67
2019-03-11T15:52:01.523Z,6.42
2019-03-11T15:54:32.469Z,6.23
2019-03-11T15:57:03.284Z,6.67
2019-03-11T15:59:37.999Z,6.07
2019-03-11T16:02:08.598Z,7.75
2019-03-11T16:04:39.589Z,6.22
2019-03-11T16:07:10.629Z,7.75
2019-03-11T16:09:42.136Z,6.87
2019-03-11T16:12:14.732Z,5.60
2019-03-11T16:14:49.421Z,5.22
2019-03-11T16:17:17.932Z,4.97
2019-03-11T16:19:52.104Z,5.58
2019-03-11T16:22:36.315Z,4.92
2019-03-11T16:25:19.868Z,6.75
2019-03-11T16:27:51.627Z,5.67
2019-03-11T16:30:22.358Z,9.33
2019-03-11T16:33:01.369Z,6.55
2019-03-11T16:35:26.663Z,6.10
2019-03-11T16:37:57.488Z,6.78
2019-03-11T16:40:28.064Z,6.85
2019-03-11T16:42:59.744Z,8.13
2019-03-11T16:45:30.683Z,6.65
2019-03-11T16:48:04.165Z,7.25
2019-03-11T16:50:39.382Z,5.57
2019-03-11T16:53:10.408Z,5.47
2019-03-11T16:55:43.507Z,4.67
2019-03-11T16:58:14.153Z,4.72
2019-03-11T17:00:45.823Z,4.78
2019-03-11T17:03:17.640Z,3.75
2019-03-11T17:05:49.039Z,4.80
2019-03-11T17:08:24.399Z,4.58
2019-03-11T17:10:54.949Z,5.42
2019-03-11T17:13:25.712Z,4.65
2019-03-11T17:15:56.538Z,5.17
2019-03-11T17:18:27.983Z,6.83
2019-03-11T17:21:00.259Z,5.70
2019-03-11T17:23:36.699Z,7.50
2019-03-11T17:26:18.718Z,6.58
2019-03-11T17:28:49.380Z,8.38
2019-03-11T17:31:26.242Z,6.30
2019-03-11T17:33:57.515Z,11.30
2019-03-11T17:36:45.108Z,7.50
2019-03-11T17:39:18.315Z,8.03
2019-03-11T17:41:49.074Z,9.55
2019-03-11T17:44:20.423Z,7.97
2019-03-11T17:46:51.456Z,6.78
2019-03-11T17:49:22.556Z,9.00
2019-03-11T17:51:53.221Z,5.70
2019-03-11T17:54:30.789Z,7.53
2019-03-11T17:57:01.920Z,8.25
2019-03-11T17:59:36.332Z,7.05
2019-03-11T18:02:21.519Z,7.27
2019-03-11T18:04:52.264Z,6.60
2019-03-11T18:07:28.903Z,9.75
2019-03-11T18:10:18.832Z,9.90
2019-03-11T18:12:54.908Z,8.08
2019-03-11T18:15:27.455Z,9.25
2019-03-11T18:17:58.689Z,9.30
2019-03-11T18:20:30.323Z,8.13
2019-03-11T18:23:07.015Z,7.83
2019-03-11T18:25:39.324Z,8.13
2019-03-11T18:28:09.935Z,10.10
2019-03-11T18:30:54.900Z,8.83
2019-03-11T18:33:39.264Z,8.35
2019-03-11T18:36:10.097Z,9.38
2019-03-11T18:38:40.769Z,7.53
2019-03-11T18:41:12.320Z,9.07
2019-03-11T18:43:46.846Z,7.62
2019-03-11T18:46:17.872Z,8.20
2019-03-11T18:48:48.814Z,9.33
2019-03-11T18:51:22.920Z,9.55
2019-03-11T18:53:56.399Z,8.73
2019-03-11T18:56:29.549Z,9.58
2019-03-11T18:59:01.814Z,11.00
2019-03-11T19:01:33.388Z,11.95
2019-03-11T19:04:04.822Z,9.30
2019-03-11T19:06:41.537Z,8.13
2019-03-11T19:09:16.970Z,9.73
2019-03-11T19:11:49.362Z,9.73
2019-03-11T19:14:36.559Z,8.05
2019-03-11T19:17:08.736Z,7.72
2019-03-11T19:19:48.117Z,7.03
2019-03-11T19:22:19.480Z,9.43
2019-03-11T19:25:46.840Z,11.48
2019-03-11T19:29:05.963Z,15.63
2019-03-11T19:32:19.648Z,11.20
2019-03-11T19:35:41.631Z,11.10
2019-03-11T19:38:15.770Z,9.43
2019-03-11T19:40:47.090Z,8.80
2019-03-11T19:43:17.924Z,9.63
2019-03-11T19:45:52.659Z,11.57
2019-03-11T19:48:26.738Z,9.45
2019-03-11T19:50:57.597Z,10.72
2019-03-11T19:53:31.564Z,13.38
2019-03-11T19:56:02.560Z,13.93
2019-03-11T19:58:33.739Z,11.15
2019-03-11T20:01:07.120Z,12.20
2019-03-11T20:03:38.023Z,12.05
2019-03-11T20:06:13.382Z,14.68
2019-03-11T20:08:44.463Z,13.98
2019-03-11T20:15:27.516Z,14.80
2019-03-11T20:17:59.035Z,13.15
2019-03-11T20:20:33.039Z,15.65
2019-03-11T20:23:05.426Z,15.83
2019-03-11T20:25:36.566Z,21.33
2019-03-11T20:28:07.932Z,15.55
2019-03-11T20:31:03.488Z,15.88
2019-03-11T20:33:37.028Z,14.13
2019-03-11T20:36:19.754Z,12.85
2019-03-11T20:38:42.852Z,13.80
2019-03-11T20:41:13.960Z,13.68
2019-03-11T20:43:46.892Z,14.85
2019-03-11T20:46:18.257Z,13.53
2019-03-11T20:48:48.941Z,13.62
2019-03-11T20:51:22.980Z,14.58
2019-03-11T20:53:53.647Z,15.70
2019-03-11T20:56:25.378Z,14.68
2019-03-11T20:59:01.815Z,13.90
2019-03-11T21:01:38.153Z,14.50
2019-03-11T21:04:09.085Z,13.93
2019-03-11T21:06:46.492Z,14.05
2019-03-11T21:09:18.234Z,13.38
2019-03-11T21:11:51.025Z,13.50
2019-03-11T21:14:23.745Z,13.38
2019-03-11T21:16:54.777Z,14.05
2019-03-11T21:19:26.086Z,15.35
2019-03-11T21:22:05.299Z,15.50
2019-03-11T21:24:39.807Z,12.95
2019-03-11T21:27:10.430Z,17.27
2019-03-11T21:29:41.302Z,17.42
2019-03-11T21:32:16.131Z,16.12
2019-03-11T21:34:48.490Z,14.83
2019-03-11T21:37:20.093Z,15.43
2019-03-11T21:39:51.720Z,13.50
2019-03-11T21:42:23.059Z,15.53
2019-03-11T21:44:54.537Z,14.47
2019-03-11T21:47:25.415Z,14.73
2019-03-11T21:49:56.176Z,14.50
2019-03-11T21:52:27.012Z,13.53
2019-03-11T21:54:59.202Z,13.93
2019-03-11T21:57:29.919Z,13.95
2019-03-11T22:00:00.585Z,14.73
2019-03-11T22:02:32.804Z,14.25
2019-03-11T22:05:03.704Z,14.85
2019-03-11T22:07:34.980Z,15.63
2019-03-11T22:10:08.671Z,13.43
2019-03-11T22:12:42.846Z,16.60
2019-03-11T22:15:14.049Z,14.07
2019-03-11T22:17:47.141Z,13.62
2019-03-11T22:20:18.695Z,14.58
2019-03-11T22:22:49.481Z,14.53
2019-03-11T22:25:26.149Z,14.27
2019-03-11T22:28:00.012Z,14.18
2019-03-11T22:30:30.914Z,14.20
2019-03-11T22:33:01.777Z,13.68
2019-03-11T22:35:35.027Z,14.38
2019-03-11T22:38:05.539Z,15.38
2019-03-11T22:40:36.097Z,13.80
2019-03-11T22:43:09.450Z,14.68
2019-03-11T22:45:40.148Z,12.93
2019-03-11T22:48:11.485Z,12.35
2019-03-11T22:50:45.824Z,12.77
2019-03-11T22:53:23.404Z,12.68
2019-03-11T22:55:56.718Z,12.20
2019-03-11T22:58:27.379Z,11.63
2019-03-11T23:01:05.193Z,11.78
2019-03-11T23:03:36.001Z,12.82
2019-03-11T23:06:20.180Z,12.33
2019-03-11T23:08:49.787Z,12.10
2019-03-11T23:11:22.818Z,12.85
2019-03-11T23:13:56.153Z,13.32
2019-03-11T23:16:30.515Z,12.88
2019-03-11T23:19:01.088Z,15.35
2019-03-11T23:21:32.162Z,11.45
2019-03-11T23:24:05.422Z,11.87
2019-03-11T23:26:36.724Z,14.78
2019-03-11T23:29:12.444Z,11.73
2019-03-11T23:31:43.134Z,11.53
2019-03-11T23:34:15.248Z,10.80
2019-03-11T23:36:48.496Z,11.80
2019-03-11T23:39:19.582Z,9.95
2019-03-11T23:41:50.153Z,10.10
2019-03-11T23:44:20.962Z,11.53
2019-03-11T23:46:51.796Z,10.45
2019-03-11T23:49:22.379Z,9.43
2019-03-11T23:51:53.075Z,11.48
2019-03-11T23:54:24.020Z,10.45
2019-03-11T23:56:55.432Z,11.55
2019-03-11T23:59:32.090Z,9.80
